Terminal Aerodrome Forecast
Issued by NWS Tallahassee, FL

Home | Current Version | Previous Version | Text Only | Print | Product List | Glossary On
Versions: 1 2 3 4 5 6 7 8 9 10 11 12 13 14
000
FTUS42 KTAE 251700
TAFTLH
TAF
KTLH 251723Z 2518/2618 22008KT P6SM VCTS BKN040CB
     FM260000 23003KT P6SM BKN250
     FM260900 22003KT P6SM BKN020
     FM261400 24006KT P6SM SCT030=

USA.gov is the U.S. government's official web portal to all federal, state and local government web resources and services.